Time;durP1;ratioP1;P1;durP2;ratioP2;P2;SDS_P1;SDS_P2;PMS_P1;PMS_P2;Temp;Humidity;BMP_temperature;BMP_pressure;BME280_temperature;BME280_humidity;BME280_pressure;Samples;Min_cycle;Max_cycle;Signal;HPM_P1;HPM_P2
2021/09/05 00:02:20;;;;;;;11.80;8.10;;;13.00;99.90;;;;;;5005012;28;20248;-60
2021/09/05 00:04:46;;;;;;;9.80;6.80;;;13.00;99.90;;;;;;5002449;28;20264;-61
2021/09/05 00:07:12;;;;;;;10.23;7.40;;;13.00;99.90;;;;;;4990313;28;20173;-60
2021/09/05 00:09:37;;;;;;;12.97;8.10;;;13.00;99.90;;;;;;5005145;28;20203;-60
2021/09/05 00:12:04;;;;;;;12.00;6.87;;;12.90;99.90;;;;;;5006115;28;20181;-60
2021/09/05 00:14:30;;;;;;;11.27;8.03;;;12.90;99.90;;;;;;5007507;28;20197;-61
2021/09/05 00:16:56;;;;;;;9.67;7.43;;;12.90;99.90;;;;;;4989366;28;20424;-61
2021/09/05 00:19:22;;;;;;;10.40;8.23;;;12.90;99.90;;;;;;5006406;28;20477;-61
2021/09/05 00:21:55;;;;;;;12.80;8.73;;;12.90;99.90;;;;;;5006452;28;20258;-60
2021/09/05 00:24:21;;;;;;;8.93;7.20;;;12.90;99.90;;;;;;5000854;28;20812;-60
2021/09/05 00:26:47;;;;;;;12.00;8.07;;;12.80;99.90;;;;;;5009853;28;20434;-60
2021/09/05 00:29:16;;;;;;;11.90;7.40;;;12.80;99.90;;;;;;5008841;28;20196;-60
2021/09/05 00:31:43;;;;;;;11.03;7.53;;;12.80;99.90;;;;;;5007180;28;20486;-60
2021/09/05 00:34:08;;;;;;;12.03;7.77;;;12.70;99.90;;;;;;5006170;28;20948;-61
2021/09/05 00:36:35;;;;;;;10.80;7.27;;;12.70;99.90;;;;;;4987825;28;20436;-60
2021/09/05 00:39:00;;;;;;;10.97;7.73;;;12.70;99.90;;;;;;5007463;28;20164;-61
2021/09/05 00:41:26;;;;;;;11.90;7.50;;;12.70;99.90;;;;;;5006394;28;20819;-61
2021/09/05 00:44:03;;;;;;;12.50;7.40;;;12.60;99.90;;;;;;5006767;28;20247;-60
2021/09/05 00:46:31;;;;;;;11.37;7.30;;;12.60;99.90;;;;;;5007129;28;20168;-60
2021/09/05 00:48:57;;;;;;;12.80;7.50;;;12.60;99.90;;;;;;5006624;28;20434;-61
2021/09/05 00:51:28;;;;;;;16.60;8.03;;;12.60;99.90;;;;;;5006072;28;20420;-60
2021/09/05 00:54:02;;;;;;;9.80;7.40;;;12.50;99.90;;;;;;4986775;28;20250;-60
2021/09/05 00:56:33;;;;;;;12.87;8.90;;;12.60;99.90;;;;;;5005777;28;20800;-61
2021/09/05 00:59:07;;;;;;;10.20;8.37;;;12.50;99.90;;;;;;5008340;28;20419;-61
2021/09/05 01:01:34;;;;;;;9.37;7.20;;;12.50;99.90;;;;;;4987900;28;20911;-60
2021/09/05 01:03:59;;;;;;;12.33;7.90;;;12.50;99.90;;;;;;4987032;28;20799;-61
2021/09/05 01:06:25;;;;;;;10.90;7.30;;;12.50;99.90;;;;;;5006902;28;20423;-60
2021/09/05 01:08:53;;;;;;;12.90;8.03;;;12.50;99.90;;;;;;5005598;28;20169;-60
2021/09/05 01:11:19;;;;;;;10.27;6.90;;;12.50;99.90;;;;;;5009105;28;20299;-60
2021/09/05 01:13:45;;;;;;;13.10;8.50;;;12.40;99.90;;;;;;5005750;28;20450;-60
2021/09/05 01:16:32;;;;;;;10.13;7.40;;;12.40;99.90;;;;;;5004931;28;20448;-60
2021/09/05 01:19:06;;;;;;;12.83;8.20;;;12.40;99.90;;;;;;5004000;28;21019;-61
2021/09/05 01:21:32;;;;;;;10.33;7.40;;;12.40;99.90;;;;;;5004244;28;20454;-60
2021/09/05 01:23:58;;;;;;;13.20;7.80;;;12.30;99.90;;;;;;5007226;28;20493;-60
2021/09/05 01:26:29;;;;;;;10.50;7.50;;;12.30;99.90;;;;;;5005825;28;20747;-60
2021/09/05 01:28:58;;;;;;;10.50;7.87;;;12.30;99.90;;;;;;5005052;28;20191;-60
2021/09/05 01:31:26;;;;;;;12.93;8.00;;;12.30;99.90;;;;;;5007058;28;20424;-60
2021/09/05 01:33:52;;;;;;;10.47;7.80;;;12.20;99.90;;;;;;5002098;28;20491;-60
2021/09/05 01:36:18;;;;;;;10.07;7.47;;;12.20;99.90;;;;;;4986246;28;20959;-60
2021/09/05 01:38:44;;;;;;;11.77;7.87;;;12.20;99.90;;;;;;5005248;28;20431;-61
2021/09/05 01:41:10;;;;;;;8.13;6.90;;;12.20;99.90;;;;;;5003230;28;20177;-60
2021/09/05 01:43:36;;;;;;;12.70;8.27;;;12.10;99.90;;;;;;5005001;28;20450;-60
2021/09/05 01:46:02;;;;;;;14.90;7.80;;;12.10;99.90;;;;;;5005719;28;20439;-60
2021/09/05 01:48:28;;;;;;;10.30;7.60;;;12.00;99.90;;;;;;5004074;28;20812;-60
2021/09/05 01:50:53;;;;;;;11.73;8.37;;;12.00;99.90;;;;;;5004339;28;20615;-61
2021/09/05 01:53:19;;;;;;;12.17;7.47;;;12.00;99.90;;;;;;4987284;28;20188;-60
2021/09/05 01:55:45;;;;;;;10.07;7.20;;;12.00;99.90;;;;;;5004033;28;20435;-60
2021/09/05 01:58:10;;;;;;;12.73;8.00;;;12.00;99.90;;;;;;5002622;28;20188;-60
2021/09/05 02:00:38;;;;;;;11.50;8.17;;;12.00;99.90;;;;;;5005459;28;20188;-60
2021/09/05 02:03:04;;;;;;;12.93;8.53;;;12.00;99.90;;;;;;5002631;28;20192;-61
2021/09/05 02:05:29;;;;;;;12.33;7.90;;;12.00;99.90;;;;;;5005369;28;20878;-61
2021/09/05 02:07:55;;;;;;;10.50;7.73;;;12.00;99.90;;;;;;5002255;28;21818;-61
2021/09/05 02:10:21;;;;;;;10.20;7.90;;;12.00;99.90;;;;;;5004469;28;20211;-60
2021/09/05 02:12:46;;;;;;;10.27;7.60;;;11.90;99.90;;;;;;5000558;28;20276;-60
2021/09/05 02:15:12;;;;;;;9.60;7.70;;;11.90;99.90;;;;;;5003982;28;20227;-60
2021/09/05 02:17:38;;;;;;;12.03;7.80;;;11.90;99.90;;;;;;5000725;28;20183;-61
2021/09/05 02:20:04;;;;;;;11.93;7.03;;;11.90;99.90;;;;;;5006768;28;20638;-60
2021/09/05 02:22:30;;;;;;;13.67;7.90;;;11.90;99.90;;;;;;5009067;28;20200;-60
2021/09/05 02:24:55;;;;;;;13.80;8.37;;;11.90;99.90;;;;;;5008126;28;20489;-61
2021/09/05 02:27:21;;;;;;;10.33;6.93;;;11.80;99.90;;;;;;5007639;28;20176;-60
2021/09/05 02:29:46;;;;;;;12.93;8.50;;;11.80;99.90;;;;;;5007210;28;20504;-60
2021/09/05 02:32:12;;;;;;;11.57;6.90;;;11.80;99.90;;;;;;5007680;28;20180;-60
2021/09/05 02:34:38;;;;;;;11.90;7.53;;;11.70;99.90;;;;;;4988942;28;20212;-60
2021/09/05 02:37:03;;;;;;;9.30;6.60;;;11.70;99.90;;;;;;5005976;28;20595;-60
2021/09/05 02:39:29;;;;;;;16.40;8.07;;;11.70;99.90;;;;;;5006732;28;20176;-60
2021/09/05 02:41:55;;;;;;;10.20;7.67;;;11.70;99.90;;;;;;5006458;28;20661;-60
2021/09/05 02:44:21;;;;;;;9.30;6.90;;;11.70;99.90;;;;;;5005321;28;20761;-60
2021/09/05 02:46:47;;;;;;;10.80;6.90;;;11.60;99.90;;;;;;5008006;28;20194;-60
2021/09/05 02:49:12;;;;;;;9.13;7.03;;;11.60;99.90;;;;;;5006378;28;20188;-60
2021/09/05 02:51:39;;;;;;;12.30;7.37;;;11.60;99.90;;;;;;5008241;28;20250;-61
2021/09/05 02:54:06;;;;;;;12.80;7.47;;;11.60;99.90;;;;;;5006820;28;20185;-61
2021/09/05 02:56:31;;;;;;;11.20;8.00;;;11.60;99.90;;;;;;5008451;28;21181;-60
2021/09/05 02:58:57;;;;;;;11.90;8.20;;;11.50;99.90;;;;;;5005318;28;20435;-60
2021/09/05 03:01:23;;;;;;;13.60;8.80;;;11.50;99.90;;;;;;5004501;28;20185;-60
2021/09/05 03:03:48;;;;;;;14.57;7.47;;;11.50;99.90;;;;;;5006129;28;20767;-60
2021/09/05 03:06:14;;;;;;;9.57;7.63;;;11.50;99.90;;;;;;5007916;28;20500;-60
2021/09/05 03:08:40;;;;;;;10.80;7.80;;;11.50;99.90;;;;;;5007613;28;21072;-60
2021/09/05 03:11:05;;;;;;;10.30;7.87;;;11.50;99.90;;;;;;5009261;28;20283;-60
2021/09/05 03:13:33;;;;;;;11.30;7.70;;;11.50;99.90;;;;;;5005270;28;20669;-59
2021/09/05 03:15:59;;;;;;;11.90;6.60;;;11.50;99.90;;;;;;5005790;28;20197;-60
2021/09/05 03:18:24;;;;;;;11.97;7.50;;;11.40;99.90;;;;;;5004674;28;20489;-59
2021/09/05 03:20:50;;;;;;;10.47;8.07;;;11.40;99.90;;;;;;5007652;28;20431;-61
2021/09/05 03:23:16;;;;;;;12.83;7.80;;;11.40;99.90;;;;;;5007245;28;20208;-60
2021/09/05 03:25:41;;;;;;;13.23;7.10;;;11.40;99.90;;;;;;5007451;28;20204;-60
2021/09/05 03:28:07;;;;;;;9.90;6.83;;;11.40;99.90;;;;;;5007151;28;20685;-60
2021/09/05 03:30:33;;;;;;;8.13;6.83;;;11.40;99.90;;;;;;5006350;28;20176;-59
2021/09/05 03:32:59;;;;;;;10.30;7.40;;;11.40;99.90;;;;;;5007469;28;20275;-59
2021/09/05 03:35:24;;;;;;;11.40;7.57;;;11.30;99.90;;;;;;5009064;28;20979;-59
2021/09/05 03:37:50;;;;;;;8.83;6.67;;;11.30;99.90;;;;;;5005932;28;20189;-60
2021/09/05 03:40:16;;;;;;;12.50;7.13;;;11.30;99.90;;;;;;5006267;28;20700;-60
2021/09/05 03:42:41;;;;;;;12.37;7.20;;;11.30;99.90;;;;;;5005643;28;20335;-60
2021/09/05 03:45:08;;;;;;;12.40;7.80;;;11.30;99.90;;;;;;5007105;28;20259;-59
2021/09/05 03:47:33;;;;;;;10.57;7.03;;;11.20;99.90;;;;;;5005724;28;20180;-60
2021/09/05 03:49:59;;;;;;;8.53;6.47;;;11.20;99.90;;;;;;5004706;28;20850;-60
2021/09/05 03:52:25;;;;;;;9.10;6.60;;;11.20;99.90;;;;;;5007305;28;20184;-60
2021/09/05 03:54:52;;;;;;;10.90;7.40;;;11.20;99.90;;;;;;5007379;28;20207;-60
2021/09/05 03:57:17;;;;;;;12.30;6.77;;;11.20;99.90;;;;;;5006537;28;20477;-59
2021/09/05 03:59:43;;;;;;;9.93;6.67;;;11.10;99.90;;;;;;5007166;28;20931;-59
2021/09/05 04:02:09;;;;;;;9.17;6.80;;;11.10;99.90;;;;;;5005518;28;20200;-60
2021/09/05 04:04:34;;;;;;;11.77;6.93;;;11.10;99.90;;;;;;5006017;28;20204;-59
2021/09/05 04:07:00;;;;;;;11.00;6.70;;;11.10;99.90;;;;;;5005231;28;20645;-60
2021/09/05 04:12:15;;;;;;;10.10;7.40;;;11.10;99.90;;;;;;5005236;28;20934;-60
2021/09/05 04:14:41;;;;;;;10.10;6.93;;;11.00;99.90;;;;;;4988537;28;21412;-60
2021/09/05 04:17:07;;;;;;;9.53;7.37;;;11.00;99.90;;;;;;5006707;28;20518;-59
2021/09/05 04:19:33;;;;;;;11.60;7.03;;;11.00;99.90;;;;;;4988094;28;20664;-59
2021/09/05 04:21:58;;;;;;;9.00;6.70;;;11.00;99.90;;;;;;4989023;28;20196;-59
2021/09/05 04:24:24;;;;;;;9.33;6.80;;;11.00;99.90;;;;;;5004502;28;20200;-60
2021/09/05 04:26:50;;;;;;;9.20;6.60;;;11.00;99.90;;;;;;5005682;28;20334;-58
2021/09/05 04:29:16;;;;;;;11.77;6.87;;;11.00;99.90;;;;;;4989973;28;20991;-59
2021/09/05 04:31:41;;;;;;;9.90;6.50;;;11.00;99.90;;;;;;5002306;28;20767;-60
2021/09/05 04:34:07;;;;;;;8.83;6.90;;;11.00;99.90;;;;;;5002989;28;20462;-60
2021/09/05 04:36:33;;;;;;;12.90;7.97;;;11.00;99.90;;;;;;5005265;28;20176;-58
2021/09/05 04:38:59;;;;;;;10.03;7.40;;;11.00;99.90;;;;;;5005366;28;20563;-60
2021/09/05 04:41:24;;;;;;;11.03;6.80;;;10.90;99.90;;;;;;5003458;28;20173;-59
2021/09/05 04:43:50;;;;;;;8.97;6.77;;;10.90;99.90;;;;;;4982565;28;20199;-60
2021/09/05 04:46:15;;;;;;;10.17;7.47;;;10.90;99.90;;;;;;4985031;28;20677;-60
2021/09/05 04:48:41;;;;;;;11.60;7.20;;;10.90;99.90;;;;;;5005372;28;20184;-60
2021/09/05 04:51:07;;;;;;;13.37;6.77;;;10.90;99.90;;;;;;5006784;28;20191;-59
2021/09/05 04:53:33;;;;;;;8.10;6.13;;;10.90;99.90;;;;;;4987933;28;20234;-59
2021/09/05 04:55:58;;;;;;;12.80;7.27;;;10.80;99.90;;;;;;5003366;28;20479;-59
2021/09/05 04:58:25;;;;;;;8.33;6.80;;;10.80;99.90;;;;;;5003704;28;20181;-59
2021/09/05 05:00:50;;;;;;;9.47;7.03;;;10.90;99.90;;;;;;5003859;28;20334;-60
2021/09/05 05:03:19;;;;;;;9.70;6.93;;;10.90;99.90;;;;;;4987480;28;21058;-59
2021/09/05 05:05:45;;;;;;;7.43;6.17;;;10.90;99.90;;;;;;5004700;28;20196;-60
2021/09/05 05:08:10;;;;;;;8.20;6.37;;;10.90;99.90;;;;;;5004913;28;20442;-59
2021/09/05 05:10:36;;;;;;;9.73;6.90;;;10.90;99.90;;;;;;5003365;28;20215;-60
2021/09/05 05:13:02;;;;;;;8.83;6.57;;;10.90;99.90;;;;;;5004650;28;20188;-60
2021/09/05 05:15:27;;;;;;;9.30;6.70;;;10.80;99.90;;;;;;5002961;28;20192;-60
2021/09/05 05:17:53;;;;;;;9.70;7.30;;;10.80;99.90;;;;;;5004002;28;20184;-61
2021/09/05 05:20:19;;;;;;;14.47;7.20;;;10.80;99.90;;;;;;5005935;28;20256;-61
2021/09/05 05:22:45;;;;;;;10.43;7.50;;;10.80;99.90;;;;;;4989233;28;20203;-60
2021/09/05 05:25:11;;;;;;;8.63;6.63;;;10.80;99.90;;;;;;5003443;28;20208;-59
2021/09/05 05:27:36;;;;;;;9.90;6.90;;;10.80;99.90;;;;;;5004547;28;20218;-60
2021/09/05 05:30:04;;;;;;;10.43;6.90;;;10.80;99.90;;;;;;5005997;28;20451;-61
2021/09/05 05:32:29;;;;;;;12.27;7.07;;;10.90;99.90;;;;;;5004843;28;20431;-61
2021/09/05 05:34:55;;;;;;;9.37;7.10;;;10.90;99.90;;;;;;5005944;28;20450;-61
2021/09/05 05:37:21;;;;;;;9.93;7.30;;;11.00;99.90;;;;;;5006573;28;20550;-61
2021/09/05 05:39:46;;;;;;;9.40;7.00;;;11.00;99.90;;;;;;5006019;28;20579;-61
2021/09/05 05:42:12;;;;;;;9.10;6.80;;;11.10;99.90;;;;;;4989114;28;20207;-61
2021/09/05 05:44:38;;;;;;;8.83;7.40;;;11.20;99.90;;;;;;5000846;28;20287;-62
2021/09/05 05:47:04;;;;;;;8.53;6.40;;;11.30;99.90;;;;;;5004518;28;20176;-61
2021/09/05 05:49:30;;;;;;;12.17;6.90;;;11.30;99.90;;;;;;5004489;28;20181;-62
2021/09/05 05:51:56;;;;;;;10.43;6.97;;;11.40;99.90;;;;;;5005505;28;20423;-61
2021/09/05 05:54:21;;;;;;;8.50;6.33;;;11.40;99.90;;;;;;5006484;28;20453;-61
2021/09/05 05:56:47;;;;;;;14.90;8.10;;;11.50;99.90;;;;;;5010556;28;20184;-61
2021/09/05 05:59:13;;;;;;;12.23;7.93;;;11.60;99.90;;;;;;5008441;28;20241;-61
2021/09/05 06:01:41;;;;;;;12.67;8.17;;;11.60;99.90;;;;;;5008581;28;20203;-62
2021/09/05 06:04:08;;;;;;;11.60;7.93;;;11.70;99.90;;;;;;5009209;28;20196;-61
2021/09/05 06:06:33;;;;;;;11.73;7.43;;;11.70;99.90;;;;;;5009116;28;20709;-61
2021/09/05 06:09:00;;;;;;;11.80;7.40;;;11.80;99.90;;;;;;5007660;28;20435;-61
2021/09/05 06:11:27;;;;;;;9.10;7.13;;;11.80;99.90;;;;;;5010116;28;20314;-60
2021/09/05 06:13:53;;;;;;;9.40;6.70;;;11.90;99.90;;;;;;5009014;28;20809;-61
2021/09/05 06:16:19;;;;;;;12.90;8.07;;;11.90;99.90;;;;;;5006982;28;21027;-61
2021/09/05 06:18:44;;;;;;;10.37;7.17;;;11.90;99.90;;;;;;5008780;28;20723;-61
2021/09/05 06:21:10;;;;;;;10.60;6.50;;;12.00;99.90;;;;;;5009020;28;20172;-60
2021/09/05 06:23:36;;;;;;;8.37;6.47;;;12.00;99.90;;;;;;5007583;28;20211;-62
2021/09/05 06:26:01;;;;;;;10.10;6.77;;;12.00;99.90;;;;;;5010517;28;20200;-62
2021/09/05 06:28:27;;;;;;;11.20;7.57;;;12.10;99.90;;;;;;5008718;28;20173;-62
2021/09/05 06:30:52;;;;;;;10.30;7.10;;;12.20;99.90;;;;;;5008079;28;20192;-61
2021/09/05 06:33:18;;;;;;;9.17;6.63;;;12.30;99.90;;;;;;5008968;28;20177;-61
2021/09/05 06:35:46;;;;;;;8.17;6.63;;;12.40;99.90;;;;;;5009272;28;20684;-61
2021/09/05 06:38:12;;;;;;;12.00;7.57;;;12.40;99.90;;;;;;5008187;28;20212;-61
2021/09/05 06:40:38;;;;;;;12.83;7.40;;;12.50;99.90;;;;;;5007852;28;20497;-61
2021/09/05 06:43:04;;;;;;;10.63;8.23;;;12.60;99.90;;;;;;5007502;28;20215;-61
2021/09/05 06:45:29;;;;;;;11.77;7.73;;;12.60;99.90;;;;;;5008514;28;20866;-60
2021/09/05 06:47:55;;;;;;;12.30;7.63;;;12.70;99.90;;;;;;4991350;28;20181;-61
2021/09/05 06:50:21;;;;;;;10.80;7.83;;;12.80;99.90;;;;;;5006696;28;20176;-60
2021/09/05 06:52:47;;;;;;;13.70;7.93;;;12.90;99.90;;;;;;5008055;28;20927;-61
2021/09/05 06:55:12;;;;;;;10.23;6.40;;;13.00;99.90;;;;;;4998485;28;20934;-61
2021/09/05 06:57:38;;;;;;;12.07;7.30;;;13.10;99.90;;;;;;5001219;28;20180;-61
2021/09/05 07:00:04;;;;;;;12.07;8.67;;;13.10;99.90;;;;;;5007284;28;20586;-61
2021/09/05 07:02:30;;;;;;;7.70;6.27;;;13.30;99.90;;;;;;5004045;28;20200;-61
2021/09/05 07:04:55;;;;;;;10.13;7.23;;;13.40;99.90;;;;;;5000030;28;20843;-61
2021/09/05 07:07:21;;;;;;;10.10;6.47;;;13.50;99.90;;;;;;5004913;28;20621;-63
2021/09/05 07:09:47;;;;;;;10.53;7.03;;;13.60;99.90;;;;;;5006519;28;20573;-63
2021/09/05 07:12:12;;;;;;;9.63;7.10;;;13.70;99.90;;;;;;4991040;28;20342;-61
2021/09/05 07:14:38;;;;;;;11.77;7.33;;;13.80;99.90;;;;;;5005041;28;20591;-63
2021/09/05 07:17:04;;;;;;;12.27;7.90;;;13.90;99.90;;;;;;5004911;28;20654;-62
2021/09/05 07:19:29;;;;;;;11.30;8.23;;;13.90;99.90;;;;;;4984521;28;20188;-61
2021/09/05 07:21:55;;;;;;;12.27;7.40;;;14.00;99.90;;;;;;5006309;28;20192;-61
2021/09/05 07:24:21;;;;;;;10.50;7.37;;;14.10;99.90;;;;;;5004420;28;20230;-61
2021/09/05 07:26:46;;;;;;;12.87;7.50;;;14.20;99.90;;;;;;4999893;28;20191;-61
2021/09/05 07:29:12;;;;;;;9.63;7.00;;;14.30;99.90;;;;;;5004768;28;20191;-64
2021/09/05 07:31:38;;;;;;;9.07;6.70;;;14.30;99.90;;;;;;5006165;28;20187;-61
2021/09/05 07:34:06;;;;;;;13.10;7.30;;;14.50;99.90;;;;;;4999071;28;20524;-61
2021/09/05 07:36:33;;;;;;;11.00;7.40;;;14.60;99.90;;;;;;5005645;28;20176;-60
2021/09/05 07:38:59;;;;;;;10.83;7.70;;;14.70;99.90;;;;;;5007864;28;20431;-60
2021/09/05 07:41:24;;;;;;;9.97;6.93;;;14.70;99.90;;;;;;5004611;28;20661;-61
2021/09/05 07:43:50;;;;;;;8.23;6.63;;;14.80;99.90;;;;;;4974079;28;20635;-60
2021/09/05 07:46:16;;;;;;;11.67;6.10;;;15.00;99.90;;;;;;4988562;28;20291;-64
2021/09/05 07:48:41;;;;;;;9.50;6.70;;;15.00;99.90;;;;;;5002507;28;20184;-61
2021/09/05 07:51:07;;;;;;;9.50;7.27;;;15.10;99.90;;;;;;5001155;28;20184;-61
2021/09/05 07:53:32;;;;;;;9.80;7.37;;;15.30;99.90;;;;;;5002752;28;20195;-61
2021/09/05 07:55:58;;;;;;;10.57;7.07;;;15.40;99.90;;;;;;5001063;28;20545;-62
2021/09/05 07:58:25;;;;;;;13.73;7.17;;;15.50;99.90;;;;;;5001583;28;20351;-64
2021/09/05 08:00:51;;;;;;;16.80;6.83;;;15.60;99.90;;;;;;4987645;28;20585;-60
2021/09/05 08:03:16;;;;;;;8.30;6.33;;;15.70;99.90;;;;;;5005002;28;20451;-62
2021/09/05 08:05:42;;;;;;;7.60;5.83;;;15.80;99.90;;;;;;5005868;28;20267;-61
2021/09/05 08:08:07;;;;;;;10.20;6.53;;;15.90;99.90;;;;;;5002034;28;20172;-61
2021/09/05 08:10:33;;;;;;;10.33;6.73;;;16.00;99.90;;;;;;4991074;28;20172;-61
2021/09/05 08:12:59;;;;;;;8.90;6.33;;;16.10;99.90;;;;;;5005621;28;20194;-61
2021/09/05 08:15:26;;;;;;;10.23;6.27;;;16.20;99.90;;;;;;5003181;28;22103;-61
2021/09/05 08:17:51;;;;;;;8.83;6.53;;;16.30;99.90;;;;;;5002574;28;20184;-61
2021/09/05 08:20:17;;;;;;;10.90;6.93;;;16.40;99.90;;;;;;5006277;28;20493;-60
2021/09/05 08:22:46;;;;;;;8.23;6.17;;;16.50;99.90;;;;;;4999376;28;20197;-62
2021/09/05 08:25:11;;;;;;;9.90;7.17;;;16.60;99.90;;;;;;5004156;28;20231;-62
2021/09/05 08:27:37;;;;;;;8.77;6.50;;;16.70;99.90;;;;;;5002032;28;20924;-60
2021/09/05 08:30:03;;;;;;;8.60;6.50;;;16.80;99.70;;;;;;5000033;28;20185;-61
2021/09/05 08:32:29;;;;;;;10.30;7.20;;;16.90;98.20;;;;;;5000640;28;22073;-56
2021/09/05 08:34:55;;;;;;;9.53;7.13;;;17.10;97.40;;;;;;4987398;28;20452;-60
2021/09/05 08:37:20;;;;;;;9.47;6.80;;;17.20;97.60;;;;;;5004582;28;20191;-60
2021/09/05 08:39:46;;;;;;;9.57;6.50;;;17.40;97.20;;;;;;5000408;28;20188;-61
2021/09/05 08:42:12;;;;;;;12.30;6.87;;;17.50;96.80;;;;;;5002126;28;20203;-61
2021/09/05 08:44:38;;;;;;;11.63;7.37;;;17.70;96.50;;;;;;5006259;28;20283;-61
2021/09/05 08:47:05;;;;;;;15.83;7.10;;;17.80;96.70;;;;;;4991148;28;20169;-61
2021/09/05 08:49:35;;;;;;;7.87;6.83;;;18.00;96.90;;;;;;4981167;28;20176;-61
2021/09/05 08:52:03;;;;;;;9.60;7.20;;;18.10;97.00;;;;;;5000624;28;20514;-60
2021/09/05 08:54:29;;;;;;;11.10;6.80;;;18.30;96.80;;;;;;5003622;28;20451;-61
2021/09/05 08:56:55;;;;;;;10.87;7.17;;;18.50;95.70;;;;;;5033030;22;20532;-56
2021/09/05 08:59:21;;;;;;;12.57;7.47;;;18.60;93.30;;;;;;5000714;28;20169;-57
2021/09/05 09:01:59;;;;;;;9.43;5.93;;;18.70;93.00;;;;;;5019394;28;22106;-57
2021/09/05 09:04:26;;;;;;;8.43;6.37;;;18.90;91.80;;;;;;5020772;28;20422;-56
2021/09/05 09:06:52;;;;;;;9.97;6.93;;;19.10;91.60;;;;;;5019864;28;20451;-57
2021/09/05 09:09:18;;;;;;;8.70;6.07;;;19.30;90.10;;;;;;5015487;28;20462;-57
2021/09/05 09:11:54;;;;;;;8.40;6.33;;;19.50;87.20;;;;;;5021798;28;20939;-59
2021/09/05 09:14:23;;;;;;;7.77;6.07;;;19.70;87.30;;;;;;5023174;28;20179;-57
2021/09/05 09:16:49;;;;;;;8.23;5.87;;;19.80;86.20;;;;;;5019028;28;20520;-57
2021/09/05 09:19:22;;;;;;;7.00;5.93;;;20.00;88.00;;;;;;5021495;28;20442;-57
2021/09/05 09:21:48;;;;;;;9.83;6.70;;;20.20;85.10;;;;;;5022683;28;20171;-56
2021/09/05 09:24:17;;;;;;;13.63;6.37;;;20.30;80.00;;;;;;5021839;28;20902;-54
2021/09/05 09:26:56;;;;;;;7.47;5.77;;;20.40;80.10;;;;;;5018681;28;20203;-57
2021/09/05 09:29:24;;;;;;;10.20;6.90;;;20.50;80.10;;;;;;5000600;28;20517;-57
2021/09/05 09:32:07;;;;;;;7.00;5.70;;;20.60;76.50;;;;;;5017707;28;20441;-57
2021/09/05 09:34:46;;;;;;;7.47;5.57;;;20.80;75.70;;;;;;5030253;28;20411;-56
2021/09/05 09:37:20;;;;;;;7.47;5.97;;;20.90;76.70;;;;;;5014857;28;20453;-58
2021/09/05 09:39:52;;;;;;;6.20;5.23;;;21.00;71.70;;;;;;5028809;28;20888;-56
2021/09/05 09:42:39;;;;;;;8.20;5.60;;;21.20;70.10;;;;;;5018969;28;20465;-56
2021/09/05 09:45:13;;;;;;;12.23;6.10;;;21.30;68.50;;;;;;5024937;28;20411;-58
2021/09/05 09:47:44;;;;;;;7.00;5.60;;;21.50;67.50;;;;;;5030582;28;20405;-58
2021/09/05 09:50:11;;;;;;;6.77;5.83;;;21.60;65.90;;;;;;5027824;28;20721;-58
2021/09/05 09:52:36;;;;;;;10.23;6.50;;;21.70;62.10;;;;;;5032891;28;20509;-59
2021/09/05 09:55:03;;;;;;;8.33;5.43;;;21.80;62.30;;;;;;5029818;28;20423;-58
2021/09/05 09:57:30;;;;;;;6.30;4.97;;;21.90;62.40;;;;;;5030021;28;20188;-57
2021/09/05 09:59:55;;;;;;;8.37;5.30;;;22.00;60.60;;;;;;5010932;28;20438;-58
2021/09/05 10:02:25;;;;;;;9.10;5.30;;;22.00;58.20;;;;;;5030291;28;20454;-58
2021/09/05 10:04:52;;;;;;;5.77;5.27;;;22.10;58.80;;;;;;5030052;28;20182;-58
2021/09/05 10:07:20;;;;;;;8.73;5.60;;;22.20;59.40;;;;;;5026396;28;20454;-58
2021/09/05 10:09:47;;;;;;;7.07;5.53;;;22.40;59.10;;;;;;5020891;28;20427;-58
2021/09/05 10:12:14;;;;;;;6.33;5.33;;;22.60;59.00;;;;;;5025424;28;20423;-58
2021/09/05 10:14:42;;;;;;;6.30;5.23;;;22.70;57.40;;;;;;5029643;28;20399;-57
2021/09/05 10:17:08;;;;;;;6.47;5.23;;;22.80;56.30;;;;;;5031432;28;20481;-56
2021/09/05 10:19:43;;;;;;;7.03;5.30;;;22.90;56.80;;;;;;5027728;28;20942;-57
2021/09/05 10:22:09;;;;;;;7.20;5.50;;;23.00;56.00;;;;;;5028521;28;20243;-57
2021/09/05 10:24:42;;;;;;;6.40;5.57;;;23.10;55.90;;;;;;5019266;28;20650;-58
2021/09/05 10:27:08;;;;;;;5.87;4.97;;;23.20;55.40;;;;;;5008811;28;20184;-58
2021/09/05 10:29:34;;;;;;;5.87;5.10;;;23.20;55.10;;;;;;5023580;28;20418;-58
2021/09/05 10:32:00;;;;;;;8.63;5.60;;;23.30;54.40;;;;;;5024923;28;20427;-59
2021/09/05 10:34:37;;;;;;;9.30;5.40;;;23.40;54.60;;;;;;5008548;28;20500;-59
2021/09/05 10:37:11;;;;;;;7.67;5.60;;;23.50;54.70;;;;;;5030905;28;20492;-58
2021/09/05 10:40:10;;;;;;;8.97;5.70;;;23.60;54.80;;;;;;5011426;28;20490;-58
2021/09/05 10:43:00;;;;;;;7.23;5.80;;;23.70;55.00;;;;;;5023907;28;20469;-58
2021/09/05 10:45:26;;;;;;;8.20;5.80;;;23.70;53.00;;;;;;5027853;28;20529;-58
2021/09/05 10:47:51;;;;;;;5.73;5.13;;;23.70;52.10;;;;;;5029842;28;20505;-58
2021/09/05 10:50:37;;;;;;;7.07;5.70;;;23.70;52.40;;;;;;5025623;28;20176;-58
2021/09/05 10:53:20;;;;;;;13.90;5.70;;;23.70;53.40;;;;;;5013767;28;20171;-58
2021/09/05 10:56:14;;;;;;;6.00;4.93;;;23.80;54.40;;;;;;5025297;28;20489;-59
2021/09/05 10:58:41;;;;;;;7.10;5.57;;;24.00;55.30;;;;;;5000641;28;20450;-59
2021/09/05 11:01:09;;;;;;;6.60;5.30;;;24.10;55.50;;;;;;5011695;28;20685;-59
2021/09/05 11:04:07;;;;;;;7.30;5.67;;;24.20;55.30;;;;;;5029844;28;20481;-58
2021/09/05 11:06:34;;;;;;;9.50;5.97;;;24.30;53.10;;;;;;5021876;28;20524;-57
2021/09/05 11:09:24;;;;;;;7.77;6.40;;;24.40;52.30;;;;;;5028440;28;20422;-58
2021/09/05 11:12:03;;;;;;;7.20;5.33;;;24.50;53.60;;;;;;5029238;28;20492;-57
2021/09/05 11:14:34;;;;;;;6.47;5.00;;;24.60;53.20;;;;;;5030126;28;20466;-59
2021/09/05 11:17:10;;;;;;;9.17;5.97;;;24.70;52.20;;;;;;5020492;28;20426;-58
2021/09/05 11:19:36;;;;;;;8.90;5.50;;;24.80;52.00;;;;;;5029053;28;20406;-58
2021/09/05 11:22:06;;;;;;;7.93;5.17;;;24.90;51.90;;;;;;5029264;28;20895;-57
2021/09/05 11:24:32;;;;;;;5.40;4.90;;;25.00;50.20;;;;;;5026046;28;20172;-58
2021/09/05 11:27:09;;;;;;;7.30;6.00;;;25.10;50.80;;;;;;5028585;28;20818;-58
2021/09/05 11:29:35;;;;;;;6.17;5.20;;;25.10;50.20;;;;;;5028385;28;20531;-57
2021/09/05 11:32:11;;;;;;;6.07;4.80;;;25.20;50.80;;;;;;5025009;28;20510;-57
2021/09/05 11:34:50;;;;;;;7.30;5.00;;;25.30;52.90;;;;;;5028857;28;20391;-59
2021/09/05 11:37:29;;;;;;;25.40;5.90;;;25.50;53.50;;;;;;5026966;28;20457;-59
2021/09/05 11:39:56;;;;;;;8.60;5.13;;;25.80;53.20;;;;;;5030755;28;20414;-58
2021/09/05 11:42:22;;;;;;;6.40;4.40;;;25.90;51.50;;;;;;5019264;28;20460;-59
2021/09/05 11:44:47;;;;;;;7.07;5.60;;;26.10;50.40;;;;;;5014798;28;20564;-58
2021/09/05 11:47:17;;;;;;;6.70;5.00;;;26.30;50.30;;;;;;5027707;28;20278;-58
2021/09/05 11:49:50;;;;;;;5.70;4.80;;;26.50;50.00;;;;;;5027472;28;20668;-59
2021/09/05 11:52:28;;;;;;;6.77;4.77;;;26.70;50.30;;;;;;5021800;28;20468;-58
2021/09/05 11:55:11;;;;;;;5.63;5.03;;;26.90;49.40;;;;;;5030623;28;20418;-57
2021/09/05 11:57:52;;;;;;;8.10;4.67;;;26.90;48.60;;;;;;5026382;28;20422;-58
2021/09/05 12:00:24;;;;;;;11.13;5.70;;;27.00;46.90;;;;;;5010688;28;20425;-59
2021/09/05 12:02:51;;;;;;;6.00;5.10;;;27.00;48.10;;;;;;5010178;28;20450;-59
2021/09/05 12:05:18;;;;;;;9.90;5.13;;;27.20;47.10;;;;;;5009905;28;20454;-59
2021/09/05 12:07:44;;;;;;;9.73;5.17;;;27.20;45.30;;;;;;5027912;28;20902;-59
2021/09/05 12:10:12;;;;;;;7.13;4.60;;;27.20;46.30;;;;;;5016233;28;20426;-60
2021/09/05 12:12:39;;;;;;;6.77;4.90;;;27.40;48.10;;;;;;5028093;28;20191;-58
2021/09/05 12:15:19;;;;;;;9.50;5.23;;;27.60;47.80;;;;;;5028151;28;20402;-59
2021/09/05 12:17:52;;;;;;;6.77;4.93;;;27.70;47.10;;;;;;5018218;28;20434;-60
2021/09/05 12:20:19;;;;;;;6.03;4.80;;;27.90;46.90;;;;;;5021937;28;20438;-59
2021/09/05 12:22:56;;;;;;;6.90;5.17;;;27.90;48.10;;;;;;5029932;28;20503;-58
2021/09/05 12:25:31;;;;;;;5.87;4.50;;;28.10;47.50;;;;;;5008297;28;20456;-59
2021/09/05 12:28:01;;;;;;;7.50;5.10;;;28.20;46.70;;;;;;5016729;28;20429;-59
2021/09/05 12:30:33;;;;;;;5.37;4.03;;;28.40;46.10;;;;;;5026518;28;20168;-59
2021/09/05 12:33:13;;;;;;;6.90;4.63;;;28.50;46.40;;;;;;5012666;28;21157;-59
2021/09/05 12:35:44;;;;;;;7.43;4.40;;;28.70;45.90;;;;;;5008829;28;20537;-60
2021/09/05 12:38:13;;;;;;;5.63;4.40;;;28.80;44.90;;;;;;4989984;28;20176;-59
2021/09/05 12:40:45;;;;;;;6.67;4.60;;;28.90;46.10;;;;;;5008340;28;20545;-60
2021/09/05 12:43:13;;;;;;;4.60;4.20;;;29.00;43.80;;;;;;5014883;28;20199;-59
2021/09/05 12:45:53;;;;;;;5.30;4.43;;;28.80;43.30;;;;;;5026423;28;20187;-59
2021/09/05 12:48:26;;;;;;;5.47;4.70;;;28.80;44.00;;;;;;5026605;28;20171;-59